Bookmark and Share
Track history (hours):
 

Tevlus

Last reported at 2013-Mar-12 08:09 UTC. Time now 2014-Apr-23 06:55 UTC.
Position N 57°28' E 010°43'.
Warning: this ship's position is years out of date!

Length 43 m; draft 3.9 m.

Type: Cargo ship. MMSI: 371406000.

NotesDate/timePositionNaut miles runAvg speedWind from/ knotsBaromVisibWave heightAir tempDewpointWater temp
2013-Mar-12 08:09N 57°28' E 010°43'4 5.9
2013-Mar-12 07:33N 57°31' E 010°44'6 6.2
2013-Mar-12 06:33N 57°38' E 010°44'6 6.4
2013-Mar-12 05:33N 57°44' E 010°45'6 6.1
2013-Mar-12 04:33N 57°50' E 010°47'6 6.5
2013-Mar-12 03:33N 57°57' E 010°49'65 7.0
2013-Mar-11 18:18N 59°02' E 010°47'7 0.2
2013-Mar-10 07:08N 59°08' E 010°54'4 5.0
2013-Mar-10 06:23N 59°09' E 010°47'5 5.0
2013-Mar-10 05:17N 59°14' E 010°43'4 4.8
2013-Mar-10 04:26N 59°18' E 010°41'4 4.7
2013-Mar-10 03:30N 59°22' E 010°38'5 4.4
2013-Mar-10 02:23N 59°27' E 010°35'4 5.0
2013-Mar-10 01:33N 59°31' E 010°37'7 5.1
2013-Mar-10 00:14N 59°38' E 010°37'3 4.9
2013-Mar-09 23:31N 59°41' E 010°36'5 4.8
2013-Mar-09 22:33N 59°45' E 010°34'5 4.9
2013-Mar-09 21:33N 59°50' E 010°37'4 4.3
2013-Mar-09 20:33N 59°53' E 010°44'1 1.2
2013-Mar-09 19:33N 59°53' E 010°45'0 0.0
2013-Mar-09 18:33N 59°53' E 010°45'0 0.0
2013-Mar-09 17:33N 59°53' E 010°45'0 0.0
2013-Mar-09 16:33N 59°53' E 010°45'0 0.0
2013-Mar-09 15:33N 59°53' E 010°45'0 0.3
2013-Mar-09 14:33N 59°53' E 010°45'5 5.3
2013-Mar-09 13:33N 59°50' E 010°37'7 6.0
2013-Mar-09 12:27N 59°43' E 010°35'11 5.5
2013-Mar-09 10:25N 59°32' E 010°34'5 5.0
2013-Mar-09 09:26N 59°32' E 010°25'5 4.6
2013-Mar-09 08:22N 59°37' E 010°26'2 1.0
2013-Mar-09 06:25N 59°35' E 010°25'5 5.2
2013-Mar-09 05:33N 59°31' E 010°30'10 6.7
2013-Mar-09 04:03N 59°40' E 010°37'4 7.8
2013-Mar-09 03:33N 59°44' E 010°34'7 7.3
2013-Mar-09 02:33N 59°51' E 010°37'5 5.0
2013-Mar-09 01:33N 59°53' E 010°45'0 0.0
2013-Mar-09 00:33N 59°53' E 010°45'0 0.0
2013-Mar-08 23:33N 59°53' E 010°45'0 0.0
2013-Mar-08 22:33N 59°53' E 010°45'0 0.0
2013-Mar-08 21:33N 59°53' E 010°45'0 0.0
2013-Mar-08 20:33N 59°53' E 010°45'1 0.9
2013-Mar-08 19:33N 59°53' E 010°44'5 5.4
2013-Mar-08 18:33N 59°49' E 010°36'17 5.4
2013-Mar-08 15:26N 59°33' E 010°35'5 5.6
2013-Mar-08 14:33N 59°31' E 010°26'6 5.4
2013-Mar-08 13:31N 59°36' E 010°26'0 0.3
2013-Mar-08 12:32N 59°37' E 010°26'5 4.3
2013-Mar-08 11:29N 59°32' E 010°24'4 4.3
2013-Mar-08 10:31N 59°29' E 010°20'0 0.0
2013-Mar-08 09:21N 59°29' E 010°20'0 0.0
2013-Mar-08 08:30N 59°29' E 010°20'2 1.8
2013-Mar-08 07:29N 59°30' E 010°22'6 6.5
2013-Mar-08 06:33N 59°36' E 010°26'1 0.6
2013-Mar-08 05:27N 59°37' E 010°26'0 0.0
2013-Mar-08 04:33N 59°37' E 010°26'0 0.0
2013-Mar-08 03:33N 59°37' E 010°26'0 0.0
2013-Mar-08 01:25N 59°37' E 010°26'0 0.1
2013-Mar-08 00:33N 59°37' E 010°26'6 5.0
2013-Mar-07 23:23N 59°31' E 010°28'13 6.0
2013-Mar-07 21:13N 59°43' E 010°35'5 7.1
2013-Mar-07 20:33N 59°48' E 010°35'6 6.2
2013-Mar-07 19:33N 59°53' E 010°43'1 1.4
2013-Mar-07 18:33N 59°53' E 010°45'0 0.0
2013-Mar-07 17:33N 59°53' E 010°45'0 0.0
2013-Mar-07 16:33N 59°53' E 010°45'7 3.7
2013-Mar-07 14:33N 59°48' E 010°35'17 5.7
2013-Mar-07 11:32N 59°31' E 010°31'4 4.1
2013-Mar-07 10:30N 59°34' E 010°25'3 3.3
2013-Mar-07 09:33N 59°37' E 010°26'0 0.3
2013-Mar-07 08:27N 59°36' E 010°26'5 5.0
2013-Mar-07 07:31N 59°32' E 010°25'12 5.3
2013-Mar-07 05:21N 59°42' E 010°36'5 6.9
2013-Mar-07 04:33N 59°47' E 010°35'6 6.4
2013-Mar-07 03:33N 59°53' E 010°42'2 1.9
2013-Mar-07 02:33N 59°53' E 010°45'0 0.0
2013-Mar-07 01:33N 59°53' E 010°45'0 0.0
2013-Mar-07 00:33N 59°53' E 010°45'0 0.0
2013-Mar-06 23:33N 59°53' E 010°45'0 0.1
2013-Mar-06 22:33N 59°53' E 010°45'0 0.1
2013-Mar-06 21:33N 59°53' E 010°45'4 4.4
2013-Mar-06 20:33N 59°51' E 010°38'6 6.1
2013-Mar-06 19:33N 59°45' E 010°35'15 5.0
2013-Mar-06 16:33N 59°31' E 010°28'4 4.4
2013-Mar-06 15:33N 59°35' E 010°25'2 1.8
2013-Mar-06 14:29N 59°37' E 010°26'1 0.7
2013-Mar-06 13:33N 59°36' E 010°26'7 5.8
2013-Mar-06 12:21N 59°29' E 010°21'1 1.1
2013-Mar-06 11:33N 59°29' E 010°20'0 0.0
2013-Mar-06 10:33N 59°29' E 010°20'0 0.0
2013-Mar-06 09:33N 59°29' E 010°20'4 3.3
2013-Mar-06 08:29N 59°32' E 010°24'5 5.0
2013-Mar-06 07:28N 59°37' E 010°26'0 0.0
2013-Mar-06 06:15N 59°37' E 010°26'2 3.3
2013-Mar-06 05:30N 59°34' E 010°25'5 4.5
2013-Mar-06 04:30N 59°31' E 010°32'7 6.6
2013-Mar-06 03:31N 59°38' E 010°37'7 7.2
2013-Mar-06 02:33N 59°44' E 010°35'7 7.0
2013-Mar-06 01:33N 59°51' E 010°37'5 4.7
2013-Mar-06 00:33N 59°53' E 010°45'0 0.0
2013-Mar-05 23:33N 59°53' E 010°45'0 0.0
2013-Mar-05 22:33N 59°53' E 010°45'0 0.0
2013-Mar-05 21:33N 59°53' E 010°45'0 0.1
2013-Mar-05 20:33N 59°53' E 010°45'0 0.1
2013-Mar-05 19:33N 59°53' E 010°45'5 5.3
2013-Mar-05 18:33N 59°50' E 010°37'18 6.1
2013-Mar-05 15:32N 59°32' E 010°33'4 4.2
2013-Mar-05 14:31N 59°32' E 010°25'4 4.0
2013-Mar-05 13:27N 59°37' E 010°26'1 0.6
2013-Mar-05 12:13N 59°36' E 010°26'5 7.4
2013-Mar-05 11:29N 59°31' E 010°22'2 2.5
2013-Mar-05 10:32N 59°29' E 010°20'0 0.0
2013-Mar-05 09:33N 59°29' E 010°20'0 0.0
2013-Mar-05 08:21N 59°29' E 010°20'3 3.9
2013-Mar-05 07:33N 59°31' E 010°23'5 3.9
2013-Mar-05 06:08N 59°37' E 010°26'0 0.0
2013-Mar-05 04:27N 59°37' E 010°26'0 0.0
2013-Mar-05 02:30N 59°37' E 010°26'0 0.0
2013-Mar-05 01:14N 59°37' E 010°26'0 0.0
2013-Mar-05 00:06N 59°37' E 010°26'0 0.0
2013-Mar-04 23:23N 59°37' E 010°26'0 0.0
2013-Mar-04 22:28N 59°37' E 010°26'0 0.0
2013-Mar-04 21:28N 59°37' E 010°26'2 1.7
2013-Mar-04 20:31N 59°35' E 010°25'5 4.9
2013-Mar-04 19:30N 59°31' E 010°31'11 5.9
2013-Mar-04 17:33N 59°42' E 010°36'7 6.7
2013-Mar-04 16:33N 59°49' E 010°36'6 6.0
2013-Mar-04 15:33N 59°53' E 010°44'1 0.7
2013-Mar-04 14:33N 59°53' E 010°45'0 0.0
2013-Mar-04 13:33N 59°53' E 010°45'0 0.0
2013-Mar-04 12:33N 59°53' E 010°45'4 4.1
2013-Mar-04 11:33N 59°52' E 010°38'6 6.4
2013-Mar-04 10:33N 59°45' E 010°35'13 6.3
2013-Mar-04 08:30N 59°33' E 010°35'5 5.3
2013-Mar-04 07:32N 59°31' E 010°25'6 4.0
2013-Mar-04 06:09N 59°37' E 010°26'0 0.0
2013-Mar-04 05:31N 59°37' E 010°26'0 0.0
2013-Mar-04 04:16N 59°37' E 010°26'0 0.0
2013-Mar-04 03:32N 59°37' E 010°26'0 0.0
2013-Mar-04 02:28N 59°37' E 010°26'0 0.0
2013-Mar-04 00:19N 59°37' E 010°26'0 0.0
2013-Mar-03 23:33N 59°37' E 010°26'0 0.0
2013-Mar-03 21:31N 59°37' E 010°26'0 0.0
2013-Mar-03 20:29N 59°37' E 010°26'0 0.0
2013-Mar-03 19:29N 59°37' E 010°26'5 5.3
2013-Mar-03 18:28N 59°31' E 010°25'11 5.6
2013-Mar-03 16:33N 59°40' E 010°37'7 7.1
2013-Mar-03 15:33N 59°47' E 010°35'6 6.4
2013-Mar-03 14:33N 59°53' E 010°42'2 2.1
2013-Mar-03 13:33N 59°53' E 010°45'0 0.0
2013-Mar-03 12:33N 59°53' E 010°45'0 0.0
2013-Mar-03 11:33N 59°53' E 010°45'0 0.0
2013-Mar-03 10:33N 59°53' E 010°45'0 0.0
2013-Mar-03 09:33N 59°53' E 010°45'0 0.0
2013-Mar-03 08:33N 59°53' E 010°45'0 0.0
2013-Mar-03 07:33N 59°53' E 010°45'0 0.0
2013-Mar-03 06:33N 59°53' E 010°45'0 0.0
2013-Mar-03 05:33N 59°53' E 010°45'0 0.0
2013-Mar-03 04:33N 59°53' E 010°45'0 0.0
2013-Mar-03 03:33N 59°53' E 010°45'0 0.0
2013-Mar-03 02:33N 59°53' E 010°45'0 0.0
2013-Mar-03 01:33N 59°53' E 010°45'0 0.0
2013-Mar-03 00:33N 59°53' E 010°45'0 0.0
2013-Mar-02 23:33N 59°53' E 010°45'0 0.0
2013-Mar-02 22:33N 59°53' E 010°45'0 0.0
2013-Mar-02 21:33N 59°53' E 010°45'0 0.0
2013-Mar-02 20:33N 59°53' E 010°45'0 0.0
2013-Mar-02 19:33N 59°53' E 010°45'0 0.0
2013-Mar-02 18:33N 59°53' E 010°45'0 0.0
2013-Mar-02 17:33N 59°53' E 010°45'0 0.0
2013-Mar-02 16:33N 59°53' E 010°45'0 0.0
2013-Mar-02 15:33N 59°53' E 010°45'0 0.0
2013-Mar-02 14:33N 59°53' E 010°45'0 0.0
2013-Mar-02 13:33N 59°53' E 010°45'0 0.0
2013-Mar-02 12:33N 59°53' E 010°45'0 0.0
2013-Mar-02 11:33N 59°53' E 010°45'0 0.0
2013-Mar-02 10:33N 59°53' E 010°45'0 0.0
2013-Mar-02 09:33N 59°53' E 010°45'0 0.0
2013-Mar-02 08:33N 59°53' E 010°45'  

Dump ship's entire track history

sailing weather and tide predictions

Tevlus — HO-4094 — position and weather